sensor_id;sensor_type;location;lat;lon;timestamp;temperature;humidity
23207;DHT22;11773;52.570;13.052;2023-06-26T00:00:10;22.10;99.90
23207;DHT22;11773;52.570;13.052;2023-06-26T00:02:40;22.10;99.90
23207;DHT22;11773;52.570;13.052;2023-06-26T00:05:10;22.00;99.90
23207;DHT22;11773;52.570;13.052;2023-06-26T00:07:39;22.00;99.90
23207;DHT22;11773;52.570;13.052;2023-06-26T00:10:09;22.00;99.90
23207;DHT22;11773;52.570;13.052;2023-06-26T00:12:38;22.00;99.90
23207;DHT22;11773;52.570;13.052;2023-06-26T00:15:08;22.00;99.90
23207;DHT22;11773;52.570;13.052;2023-06-26T00:17:38;21.90;99.90
23207;DHT22;11773;52.570;13.052;2023-06-26T00:20:08;21.80;99.90
23207;DHT22;11773;52.570;13.052;2023-06-26T00:22:38;22.00;99.90
23207;DHT22;11773;52.570;13.052;2023-06-26T00:25:09;21.90;99.90
23207;DHT22;11773;52.570;13.052;2023-06-26T00:27:39;21.80;99.90
23207;DHT22;11773;52.570;13.052;2023-06-26T00:30:09;21.80;99.90
23207;DHT22;11773;52.570;13.052;2023-06-26T00:32:39;21.80;99.90
23207;DHT22;11773;52.570;13.052;2023-06-26T00:35:09;21.80;99.90
23207;DHT22;11773;52.570;13.052;2023-06-26T00:37:39;21.80;99.90
23207;DHT22;11773;52.570;13.052;2023-06-26T00:40:09;21.80;99.90
23207;DHT22;11773;52.570;13.052;2023-06-26T00:42:38;21.70;99.90
23207;DHT22;11773;52.570;13.052;2023-06-26T00:45:08;21.70;99.90
23207;DHT22;11773;52.570;13.052;2023-06-26T00:47:38;21.70;99.90
23207;DHT22;11773;52.570;13.052;2023-06-26T00:50:08;21.80;99.90
23207;DHT22;11773;52.570;13.052;2023-06-26T00:52:38;21.70;99.90
23207;DHT22;11773;52.570;13.052;2023-06-26T00:55:07;21.60;99.90
23207;DHT22;11773;52.570;13.052;2023-06-26T00:57:38;21.40;99.90
23207;DHT22;11773;52.570;13.052;2023-06-26T01:00:08;21.40;99.90
23207;DHT22;11773;52.570;13.052;2023-06-26T01:02:38;21.50;99.90
23207;DHT22;11773;52.570;13.052;2023-06-26T01:05:07;21.60;99.90
23207;DHT22;11773;52.570;13.052;2023-06-26T01:07:40;21.50;99.90
23207;DHT22;11773;52.570;13.052;2023-06-26T01:10:09;21.50;99.90
23207;DHT22;11773;52.570;13.052;2023-06-26T01:12:39;21.50;99.90
23207;DHT22;11773;52.570;13.052;2023-06-26T01:15:09;21.40;99.90
23207;DHT22;11773;52.570;13.052;2023-06-26T01:17:40;21.50;99.90
23207;DHT22;11773;52.570;13.052;2023-06-26T01:20:12;21.40;99.90
23207;DHT22;11773;52.570;13.052;2023-06-26T01:22:47;21.50;99.90
23207;DHT22;11773;52.570;13.052;2023-06-26T01:25:33;21.50;99.90
23207;DHT22;11773;52.570;13.052;2023-06-26T01:28:08;21.40;99.90
23207;DHT22;11773;52.570;13.052;2023-06-26T01:30:42;21.30;99.90
23207;DHT22;11773;52.570;13.052;2023-06-26T01:33:15;21.30;99.90
23207;DHT22;11773;52.570;13.052;2023-06-26T01:35:46;21.20;99.90
23207;DHT22;11773;52.570;13.052;2023-06-26T01:38:18;21.10;99.90
23207;DHT22;11773;52.570;13.052;2023-06-26T01:40:51;21.00;99.90
23207;DHT22;11773;52.570;13.052;2023-06-26T01:49:42;21.10;99.90
23207;DHT22;11773;52.570;13.052;2023-06-26T01:52:32;21.20;99.90
23207;DHT22;11773;52.570;13.052;2023-06-26T01:55:15;21.20;99.90
23207;DHT22;11773;52.570;13.052;2023-06-26T01:57:46;21.10;99.90
23207;DHT22;11773;52.570;13.052;2023-06-26T02:00:17;21.00;99.90
23207;DHT22;11773;52.570;13.052;2023-06-26T02:02:48;21.10;99.90
23207;DHT22;11773;52.570;13.052;2023-06-26T02:05:17;21.10;99.90
23207;DHT22;11773;52.570;13.052;2023-06-26T02:07:47;21.00;99.90
23207;DHT22;11773;52.570;13.052;2023-06-26T02:10:17;20.90;99.90
23207;DHT22;11773;52.570;13.052;2023-06-26T02:12:46;21.10;99.90
23207;DHT22;11773;52.570;13.052;2023-06-26T02:15:16;21.10;99.90
23207;DHT22;11773;52.570;13.052;2023-06-26T02:17:45;21.10;99.90
23207;DHT22;11773;52.570;13.052;2023-06-26T02:20:16;21.10;99.90
23207;DHT22;11773;52.570;13.052;2023-06-26T02:22:46;21.10;99.90
23207;DHT22;11773;52.570;13.052;2023-06-26T02:25:17;21.00;99.90
23207;DHT22;11773;52.570;13.052;2023-06-26T02:27:46;21.00;99.90
23207;DHT22;11773;52.570;13.052;2023-06-26T02:30:16;21.00;99.90
23207;DHT22;11773;52.570;13.052;2023-06-26T02:32:45;20.90;99.90
23207;DHT22;11773;52.570;13.052;2023-06-26T02:35:15;20.70;99.90
23207;DHT22;11773;52.570;13.052;2023-06-26T02:37:45;20.90;99.90
23207;DHT22;11773;52.570;13.052;2023-06-26T02:40:14;20.80;99.90
23207;DHT22;11773;52.570;13.052;2023-06-26T02:42:44;20.70;99.90
23207;DHT22;11773;52.570;13.052;2023-06-26T02:45:13;20.70;99.90
23207;DHT22;11773;52.570;13.052;2023-06-26T02:47:43;20.70;99.90
23207;DHT22;11773;52.570;13.052;2023-06-26T02:50:13;20.60;99.90
23207;DHT22;11773;52.570;13.052;2023-06-26T02:52:42;20.60;99.90
23207;DHT22;11773;52.570;13.052;2023-06-26T02:55:12;20.60;99.90
23207;DHT22;11773;52.570;13.052;2023-06-26T02:57:42;20.60;99.90
23207;DHT22;11773;52.570;13.052;2023-06-26T03:00:12;20.70;99.90
23207;DHT22;11773;52.570;13.052;2023-06-26T03:02:42;20.70;99.90
23207;DHT22;11773;52.570;13.052;2023-06-26T03:05:12;20.70;99.90
23207;DHT22;11773;52.570;13.052;2023-06-26T03:07:41;20.70;99.90
23207;DHT22;11773;52.570;13.052;2023-06-26T03:10:11;20.70;99.90
23207;DHT22;11773;52.570;13.052;2023-06-26T03:12:41;20.80;99.90
23207;DHT22;11773;52.570;13.052;2023-06-26T03:15:10;20.80;99.90
23207;DHT22;11773;52.570;13.052;2023-06-26T03:17:40;20.70;99.90
23207;DHT22;11773;52.570;13.052;2023-06-26T03:20:10;20.70;99.90
23207;DHT22;11773;52.570;13.052;2023-06-26T03:22:39;20.60;99.90
23207;DHT22;11773;52.570;13.052;2023-06-26T03:25:09;20.70;99.90
23207;DHT22;11773;52.570;13.052;2023-06-26T03:27:38;20.70;99.90
23207;DHT22;11773;52.570;13.052;2023-06-26T03:30:09;20.70;99.90
23207;DHT22;11773;52.570;13.052;2023-06-26T03:32:39;20.70;99.90
23207;DHT22;11773;52.570;13.052;2023-06-26T03:35:09;20.70;99.90
23207;DHT22;11773;52.570;13.052;2023-06-26T03:37:38;20.70;99.90
23207;DHT22;11773;52.570;13.052;2023-06-26T03:40:08;20.60;99.90
23207;DHT22;11773;52.570;13.052;2023-06-26T03:42:38;20.70;99.90
23207;DHT22;11773;52.570;13.052;2023-06-26T03:45:08;20.60;99.90
23207;DHT22;11773;52.570;13.052;2023-06-26T03:47:37;20.60;99.90
23207;DHT22;11773;52.570;13.052;2023-06-26T03:50:07;20.70;99.90
23207;DHT22;11773;52.570;13.052;2023-06-26T03:52:37;20.70;99.90
23207;DHT22;11773;52.570;13.052;2023-06-26T03:55:07;20.70;99.90
23207;DHT22;11773;52.570;13.052;2023-06-26T03:57:37;20.80;99.90
23207;DHT22;11773;52.570;13.052;2023-06-26T04:00:08;20.80;99.90
23207;DHT22;11773;52.570;13.052;2023-06-26T04:02:39;20.90;99.90
23207;DHT22;11773;52.570;13.052;2023-06-26T04:05:09;20.80;99.90
23207;DHT22;11773;52.570;13.052;2023-06-26T04:07:39;20.80;99.90
23207;DHT22;11773;52.570;13.052;2023-06-26T04:10:09;20.80;99.90
23207;DHT22;11773;52.570;13.052;2023-06-26T04:12:38;20.80;99.90
23207;DHT22;11773;52.570;13.052;2023-06-26T04:15:08;20.80;99.90
23207;DHT22;11773;52.570;13.052;2023-06-26T04:17:38;20.70;99.90
23207;DHT22;11773;52.570;13.052;2023-06-26T04:20:08;20.90;99.90
23207;DHT22;11773;52.570;13.052;2023-06-26T04:22:38;21.00;99.90
23207;DHT22;11773;52.570;13.052;2023-06-26T04:25:07;20.80;99.90
23207;DHT22;11773;52.570;13.052;2023-06-26T04:27:39;20.70;99.90
23207;DHT22;11773;52.570;13.052;2023-06-26T04:30:09;20.70;99.90
23207;DHT22;11773;52.570;13.052;2023-06-26T04:32:40;20.80;99.90
23207;DHT22;11773;52.570;13.052;2023-06-26T04:35:09;20.80;99.90
23207;DHT22;11773;52.570;13.052;2023-06-26T04:37:39;20.90;99.90
23207;DHT22;11773;52.570;13.052;2023-06-26T04:42:59;21.10;99.90
23207;DHT22;11773;52.570;13.052;2023-06-26T04:45:29;21.30;99.90
23207;DHT22;11773;52.570;13.052;2023-06-26T04:47:58;21.40;99.90
23207;DHT22;11773;52.570;13.052;2023-06-26T04:50:29;21.40;99.90
23207;DHT22;11773;52.570;13.052;2023-06-26T04:52:59;21.50;99.90
23207;DHT22;11773;52.570;13.052;2023-06-26T04:55:30;21.60;99.90
23207;DHT22;11773;52.570;13.052;2023-06-26T04:57:59;21.60;99.90
23207;DHT22;11773;52.570;13.052;2023-06-26T05:00:29;21.60;99.90
23207;DHT22;11773;52.570;13.052;2023-06-26T05:02:59;21.60;99.90
23207;DHT22;11773;52.570;13.052;2023-06-26T05:05:29;21.40;99.90
23207;DHT22;11773;52.570;13.052;2023-06-26T05:07:58;21.50;99.90
23207;DHT22;11773;52.570;13.052;2023-06-26T05:10:31;21.60;99.90
23207;DHT22;11773;52.570;13.052;2023-06-26T05:13:01;21.80;99.90
23207;DHT22;11773;52.570;13.052;2023-06-26T05:15:30;22.20;99.90
23207;DHT22;11773;52.570;13.052;2023-06-26T05:18:00;22.50;99.90
23207;DHT22;11773;52.570;13.052;2023-06-26T05:20:30;22.90;99.90
23207;DHT22;11773;52.570;13.052;2023-06-26T05:23:00;23.40;99.90
23207;DHT22;11773;52.570;13.052;2023-06-26T05:25:31;23.70;99.90
23207;DHT22;11773;52.570;13.052;2023-06-26T05:28:03;24.20;99.90
23207;DHT22;11773;52.570;13.052;2023-06-26T05:30:33;24.60;99.90
23207;DHT22;11773;52.570;13.052;2023-06-26T05:33:03;24.90;99.90
23207;DHT22;11773;52.570;13.052;2023-06-26T05:35:34;25.10;99.90
23207;DHT22;11773;52.570;13.052;2023-06-26T05:38:06;25.40;99.90
23207;DHT22;11773;52.570;13.052;2023-06-26T05:40:35;25.70;99.90
23207;DHT22;11773;52.570;13.052;2023-06-26T05:43:06;26.00;99.90
23207;DHT22;11773;52.570;13.052;2023-06-26T05:45:36;26.20;99.90
23207;DHT22;11773;52.570;13.052;2023-06-26T05:48:06;26.30;99.90
23207;DHT22;11773;52.570;13.052;2023-06-26T05:50:36;26.50;99.90
23207;DHT22;11773;52.570;13.052;2023-06-26T05:53:06;26.70;99.90
23207;DHT22;11773;52.570;13.052;2023-06-26T05:55:36;26.80;99.90
23207;DHT22;11773;52.570;13.052;2023-06-26T05:58:10;27.10;99.90
23207;DHT22;11773;52.570;13.052;2023-06-26T06:00:40;27.20;99.90
23207;DHT22;11773;52.570;13.052;2023-06-26T06:03:10;27.30;99.90
23207;DHT22;11773;52.570;13.052;2023-06-26T06:05:40;27.50;99.90
23207;DHT22;11773;52.570;13.052;2023-06-26T06:08:09;27.60;99.90
23207;DHT22;11773;52.570;13.052;2023-06-26T06:10:39;27.80;99.90
23207;DHT22;11773;52.570;13.052;2023-06-26T06:13:09;28.10;99.90
23207;DHT22;11773;52.570;13.052;2023-06-26T06:15:39;28.20;99.90
23207;DHT22;11773;52.570;13.052;2023-06-26T06:18:08;28.50;99.90
23207;DHT22;11773;52.570;13.052;2023-06-26T06:20:38;28.40;99.90
23207;DHT22;11773;52.570;13.052;2023-06-26T06:23:08;28.40;99.90
23207;DHT22;11773;52.570;13.052;2023-06-26T06:25:38;28.50;99.90
23207;DHT22;11773;52.570;13.052;2023-06-26T06:28:07;28.60;99.90
23207;DHT22;11773;52.570;13.052;2023-06-26T06:30:37;28.70;99.90
23207;DHT22;11773;52.570;13.052;2023-06-26T06:33:08;28.80;99.90
23207;DHT22;11773;52.570;13.052;2023-06-26T06:35:38;28.80;99.90
23207;DHT22;11773;52.570;13.052;2023-06-26T06:38:07;29.00;99.90
23207;DHT22;11773;52.570;13.052;2023-06-26T06:40:37;28.80;99.90
23207;DHT22;11773;52.570;13.052;2023-06-26T06:43:07;29.10;99.90
23207;DHT22;11773;52.570;13.052;2023-06-26T06:45:36;29.30;99.90
23207;DHT22;11773;52.570;13.052;2023-06-26T06:48:06;29.70;99.90
23207;DHT22;11773;52.570;13.052;2023-06-26T06:50:35;29.80;99.90
23207;DHT22;11773;52.570;13.052;2023-06-26T06:53:07;29.90;99.90
23207;DHT22;11773;52.570;13.052;2023-06-26T06:55:36;29.90;99.90
23207;DHT22;11773;52.570;13.052;2023-06-26T06:58:06;30.10;99.90
23207;DHT22;11773;52.570;13.052;2023-06-26T07:04:21;30.40;99.90
23207;DHT22;11773;52.570;13.052;2023-06-26T07:06:52;30.60;99.90
23207;DHT22;11773;52.570;13.052;2023-06-26T07:09:22;30.40;99.90
23207;DHT22;11773;52.570;13.052;2023-06-26T07:11:51;30.60;99.90
23207;DHT22;11773;52.570;13.052;2023-06-26T07:14:21;30.80;99.90
23207;DHT22;11773;52.570;13.052;2023-06-26T07:16:50;31.00;99.90
23207;DHT22;11773;52.570;13.052;2023-06-26T07:19:20;30.80;99.90
23207;DHT22;11773;52.570;13.052;2023-06-26T07:21:49;31.10;99.90
23207;DHT22;11773;52.570;13.052;2023-06-26T07:24:19;31.10;99.90
23207;DHT22;11773;52.570;13.052;2023-06-26T07:26:49;30.60;99.90
23207;DHT22;11773;52.570;13.052;2023-06-26T07:29:18;30.40;99.90
23207;DHT22;11773;52.570;13.052;2023-06-26T07:31:48;30.70;99.90
23207;DHT22;11773;52.570;13.052;2023-06-26T07:34:17;31.00;99.90
23207;DHT22;11773;52.570;13.052;2023-06-26T07:36:47;30.90;99.90
23207;DHT22;11773;52.570;13.052;2023-06-26T07:39:16;31.40;99.90
23207;DHT22;11773;52.570;13.052;2023-06-26T07:41:48;31.80;99.90
23207;DHT22;11773;52.570;13.052;2023-06-26T07:44:17;31.50;99.90
23207;DHT22;11773;52.570;13.052;2023-06-26T07:46:47;31.60;99.90
23207;DHT22;11773;52.570;13.052;2023-06-26T07:49:17;31.80;99.90
23207;DHT22;11773;52.570;13.052;2023-06-26T07:51:46;31.90;99.90
23207;DHT22;11773;52.570;13.052;2023-06-26T07:54:16;32.10;99.90
23207;DHT22;11773;52.570;13.052;2023-06-26T07:57:03;32.40;99.90
23207;DHT22;11773;52.570;13.052;2023-06-26T07:59:36;32.40;99.90
23207;DHT22;11773;52.570;13.052;2023-06-26T08:02:06;32.50;99.90
23207;DHT22;11773;52.570;13.052;2023-06-26T08:04:36;32.50;99.90
23207;DHT22;11773;52.570;13.052;2023-06-26T08:07:05;32.50;99.90
23207;DHT22;11773;52.570;13.052;2023-06-26T08:09:35;32.00;99.90
23207;DHT22;11773;52.570;13.052;2023-06-26T08:12:06;32.10;99.90
23207;DHT22;11773;52.570;13.052;2023-06-26T08:14:37;32.20;99.90
23207;DHT22;11773;52.570;13.052;2023-06-26T08:17:06;31.80;99.90
23207;DHT22;11773;52.570;13.052;2023-06-26T08:19:36;31.80;99.90
23207;DHT22;11773;52.570;13.052;2023-06-26T08:22:05;32.40;99.90
23207;DHT22;11773;52.570;13.052;2023-06-26T08:24:35;32.60;99.90
23207;DHT22;11773;52.570;13.052;2023-06-26T08:27:05;32.50;99.90
23207;DHT22;11773;52.570;13.052;2023-06-26T08:29:35;31.90;99.90
23207;DHT22;11773;52.570;13.052;2023-06-26T08:32:05;32.20;99.90
23207;DHT22;11773;52.570;13.052;2023-06-26T08:34:35;32.30;99.90
23207;DHT22;11773;52.570;13.052;2023-06-26T08:37:04;32.40;99.90
23207;DHT22;11773;52.570;13.052;2023-06-26T08:39:36;32.50;99.90
23207;DHT22;11773;52.570;13.052;2023-06-26T08:42:06;32.30;99.90
23207;DHT22;11773;52.570;13.052;2023-06-26T08:44:35;32.20;99.90
23207;DHT22;11773;52.570;13.052;2023-06-26T08:47:07;32.50;99.90
23207;DHT22;11773;52.570;13.052;2023-06-26T08:49:44;32.40;99.90
23207;DHT22;11773;52.570;13.052;2023-06-26T08:52:33;32.50;99.90
23207;DHT22;11773;52.570;13.052;2023-06-26T08:55:15;32.50;99.90
23207;DHT22;11773;52.570;13.052;2023-06-26T08:57:47;32.60;99.90
23207;DHT22;11773;52.570;13.052;2023-06-26T09:00:17;32.80;99.90
23207;DHT22;11773;52.570;13.052;2023-06-26T09:02:47;32.80;99.90
23207;DHT22;11773;52.570;13.052;2023-06-26T09:05:17;32.90;99.90
23207;DHT22;11773;52.570;13.052;2023-06-26T09:07:47;32.60;99.90
23207;DHT22;11773;52.570;13.052;2023-06-26T09:10:17;32.50;99.90
23207;DHT22;11773;52.570;13.052;2023-06-26T09:12:47;32.90;99.90
23207;DHT22;11773;52.570;13.052;2023-06-26T09:15:24;33.10;99.90
23207;DHT22;11773;52.570;13.052;2023-06-26T09:17:49;33.00;99.90
23207;DHT22;11773;52.570;13.052;2023-06-26T09:20:20;32.80;99.90
23207;DHT22;11773;52.570;13.052;2023-06-26T09:22:50;32.60;99.90
23207;DHT22;11773;52.570;13.052;2023-06-26T09:25:20;32.50;99.90
23207;DHT22;11773;52.570;13.052;2023-06-26T09:27:50;32.50;99.90
23207;DHT22;11773;52.570;13.052;2023-06-26T09:30:20;32.70;99.90
23207;DHT22;11773;52.570;13.052;2023-06-26T09:32:50;32.90;99.90
23207;DHT22;11773;52.570;13.052;2023-06-26T09:35:22;33.00;99.90
23207;DHT22;11773;52.570;13.052;2023-06-26T09:37:52;33.00;99.90
23207;DHT22;11773;52.570;13.052;2023-06-26T09:40:22;33.00;99.90
23207;DHT22;11773;52.570;13.052;2023-06-26T09:42:51;33.10;99.90
23207;DHT22;11773;52.570;13.052;2023-06-26T09:45:22;33.10;99.90
23207;DHT22;11773;52.570;13.052;2023-06-26T09:47:52;33.50;99.90
23207;DHT22;11773;52.570;13.052;2023-06-26T09:50:23;32.70;99.90
23207;DHT22;11773;52.570;13.052;2023-06-26T09:52:54;32.80;99.90
23207;DHT22;11773;52.570;13.052;2023-06-26T09:55:26;33.00;99.90
23207;DHT22;11773;52.570;13.052;2023-06-26T09:57:57;33.00;99.90
23207;DHT22;11773;52.570;13.052;2023-06-26T10:00:31;33.20;99.90
23207;DHT22;11773;52.570;13.052;2023-06-26T10:03:01;32.90;99.90
23207;DHT22;11773;52.570;13.052;2023-06-26T10:05:31;32.80;99.90
23207;DHT22;11773;52.570;13.052;2023-06-26T10:08:02;32.70;99.90
23207;DHT22;11773;52.570;13.052;2023-06-26T10:10:37;32.90;99.90
23207;DHT22;11773;52.570;13.052;2023-06-26T10:13:15;33.20;99.90
23207;DHT22;11773;52.570;13.052;2023-06-26T10:15:48;33.20;99.90
23207;DHT22;11773;52.570;13.052;2023-06-26T10:18:21;32.80;99.90
23207;DHT22;11773;52.570;13.052;2023-06-26T10:20:55;32.90;99.90
23207;DHT22;11773;52.570;13.052;2023-06-26T10:23:26;32.90;99.90
23207;DHT22;11773;52.570;13.052;2023-06-26T10:25:59;32.60;99.90
23207;DHT22;11773;52.570;13.052;2023-06-26T10:28:31;32.90;99.90
23207;DHT22;11773;52.570;13.052;2023-06-26T10:31:04;32.80;99.90
23207;DHT22;11773;52.570;13.052;2023-06-26T10:33:36;32.90;99.90
23207;DHT22;11773;52.570;13.052;2023-06-26T10:36:16;32.80;99.90
23207;DHT22;11773;52.570;13.052;2023-06-26T10:39:06;32.90;99.90
23207;DHT22;11773;52.570;13.052;2023-06-26T10:41:40;33.10;99.90
23207;DHT22;11773;52.570;13.052;2023-06-26T10:44:16;33.00;99.90
23207;DHT22;11773;52.570;13.052;2023-06-26T10:46:53;32.80;99.90
23207;DHT22;11773;52.570;13.052;2023-06-26T10:49:34;32.70;99.90
23207;DHT22;11773;52.570;13.052;2023-06-26T10:52:02;32.80;99.90
23207;DHT22;11773;52.570;13.052;2023-06-26T10:54:32;33.00;99.90
23207;DHT22;11773;52.570;13.052;2023-06-26T10:57:02;32.90;99.90
23207;DHT22;11773;52.570;13.052;2023-06-26T10:59:32;32.90;99.90
23207;DHT22;11773;52.570;13.052;2023-06-26T11:02:04;32.70;99.90
23207;DHT22;11773;52.570;13.052;2023-06-26T11:04:41;32.80;99.90
23207;DHT22;11773;52.570;13.052;2023-06-26T11:07:25;33.10;99.90
23207;DHT22;11773;52.570;13.052;2023-06-26T11:10:36;33.00;99.90
23207;DHT22;11773;52.570;13.052;2023-06-26T11:12:42;32.90;99.90
23207;DHT22;11773;52.570;13.052;2023-06-26T11:15:15;33.00;99.90
23207;DHT22;11773;52.570;13.052;2023-06-26T11:17:47;33.10;99.90
23207;DHT22;11773;52.570;13.052;2023-06-26T11:20:18;33.30;99.90
23207;DHT22;11773;52.570;13.052;2023-06-26T11:22:49;33.20;99.90
23207;DHT22;11773;52.570;13.052;2023-06-26T11:25:20;33.50;99.90
23207;DHT22;11773;52.570;13.052;2023-06-26T11:27:53;33.30;99.90
23207;DHT22;11773;52.570;13.052;2023-06-26T11:30:24;33.20;99.90
23207;DHT22;11773;52.570;13.052;2023-06-26T11:33:03;33.40;99.90
23207;DHT22;11773;52.570;13.052;2023-06-26T11:35:36;33.30;99.90
23207;DHT22;11773;52.570;13.052;2023-06-26T11:38:06;33.30;99.90
23207;DHT22;11773;52.570;13.052;2023-06-26T11:40:36;33.30;99.90
23207;DHT22;11773;52.570;13.052;2023-06-26T11:43:07;33.30;99.90
23207;DHT22;11773;52.570;13.052;2023-06-26T11:45:38;33.00;99.90
23207;DHT22;11773;52.570;13.052;2023-06-26T11:48:08;33.00;99.90
23207;DHT22;11773;52.570;13.052;2023-06-26T11:50:39;33.40;99.90
23207;DHT22;11773;52.570;13.052;2023-06-26T11:53:14;33.40;99.90
23207;DHT22;11773;52.570;13.052;2023-06-26T11:55:43;33.40;99.90
23207;DHT22;11773;52.570;13.052;2023-06-26T11:58:13;33.70;99.90
23207;DHT22;11773;52.570;13.052;2023-06-26T12:00:42;33.60;99.90
23207;DHT22;11773;52.570;13.052;2023-06-26T12:03:12;33.80;99.90
23207;DHT22;11773;52.570;13.052;2023-06-26T12:05:43;33.80;99.90
23207;DHT22;11773;52.570;13.052;2023-06-26T12:08:13;33.60;99.90
23207;DHT22;11773;52.570;13.052;2023-06-26T12:10:44;33.50;99.90
23207;DHT22;11773;52.570;13.052;2023-06-26T12:13:14;33.60;99.90
23207;DHT22;11773;52.570;13.052;2023-06-26T12:15:44;33.80;99.90
23207;DHT22;11773;52.570;13.052;2023-06-26T12:18:13;33.70;99.90
23207;DHT22;11773;52.570;13.052;2023-06-26T12:20:43;33.60;99.90
23207;DHT22;11773;52.570;13.052;2023-06-26T12:23:13;33.60;99.90
23207;DHT22;11773;52.570;13.052;2023-06-26T12:25:43;33.50;99.90
23207;DHT22;11773;52.570;13.052;2023-06-26T12:28:18;33.60;99.90
23207;DHT22;11773;52.570;13.052;2023-06-26T12:31:11;33.80;99.90
23207;DHT22;11773;52.570;13.052;2023-06-26T12:33:37;33.80;99.90
23207;DHT22;11773;52.570;13.052;2023-06-26T12:36:14;33.80;99.90
23207;DHT22;11773;52.570;13.052;2023-06-26T12:38:46;33.90;99.90
23207;DHT22;11773;52.570;13.052;2023-06-26T12:41:17;33.70;99.90
23207;DHT22;11773;52.570;13.052;2023-06-26T12:43:48;33.30;99.90
23207;DHT22;11773;52.570;13.052;2023-06-26T12:46:17;33.10;99.90
23207;DHT22;11773;52.570;13.052;2023-06-26T12:48:48;33.10;99.90
23207;DHT22;11773;52.570;13.052;2023-06-26T12:51:19;33.30;99.90
23207;DHT22;11773;52.570;13.052;2023-06-26T12:53:50;33.30;99.90
23207;DHT22;11773;52.570;13.052;2023-06-26T12:56:20;33.20;99.90
23207;DHT22;11773;52.570;13.052;2023-06-26T12:58:49;32.90;99.90
23207;DHT22;11773;52.570;13.052;2023-06-26T13:01:19;32.90;99.90
23207;DHT22;11773;52.570;13.052;2023-06-26T13:03:48;32.90;99.90
23207;DHT22;11773;52.570;13.052;2023-06-26T13:06:20;32.70;99.90
23207;DHT22;11773;52.570;13.052;2023-06-26T13:08:50;32.70;99.90
23207;DHT22;11773;52.570;13.052;2023-06-26T13:11:19;32.60;99.90
23207;DHT22;11773;52.570;13.052;2023-06-26T13:13:52;32.60;99.90
23207;DHT22;11773;52.570;13.052;2023-06-26T13:16:23;32.60;99.90
23207;DHT22;11773;52.570;13.052;2023-06-26T13:18:52;32.40;99.90
23207;DHT22;11773;52.570;13.052;2023-06-26T13:21:23;32.30;99.90
23207;DHT22;11773;52.570;13.052;2023-06-26T13:23:53;32.40;99.90
23207;DHT22;11773;52.570;13.052;2023-06-26T13:26:23;32.40;99.90
23207;DHT22;11773;52.570;13.052;2023-06-26T13:28:56;32.10;99.90
23207;DHT22;11773;52.570;13.052;2023-06-26T13:31:25;32.00;99.90
23207;DHT22;11773;52.570;13.052;2023-06-26T13:33:57;32.00;99.90
23207;DHT22;11773;52.570;13.052;2023-06-26T13:36:27;32.00;99.90
23207;DHT22;11773;52.570;13.052;2023-06-26T13:38:57;32.00;99.90
23207;DHT22;11773;52.570;13.052;2023-06-26T13:41:27;31.90;99.90
23207;DHT22;11773;52.570;13.052;2023-06-26T13:43:56;31.70;99.90
23207;DHT22;11773;52.570;13.052;2023-06-26T13:46:27;31.60;99.90
23207;DHT22;11773;52.570;13.052;2023-06-26T13:48:57;31.60;99.90
23207;DHT22;11773;52.570;13.052;2023-06-26T13:51:27;30.60;99.90
23207;DHT22;11773;52.570;13.052;2023-06-26T13:53:56;29.10;99.90
23207;DHT22;11773;52.570;13.052;2023-06-26T13:56:28;27.90;99.90
23207;DHT22;11773;52.570;13.052;2023-06-26T13:58:58;27.60;99.90
23207;DHT22;11773;52.570;13.052;2023-06-26T14:01:27;28.00;99.90
23207;DHT22;11773;52.570;13.052;2023-06-26T14:03:57;28.20;99.90
23207;DHT22;11773;52.570;13.052;2023-06-26T14:06:27;28.40;99.90
23207;DHT22;11773;52.570;13.052;2023-06-26T14:08:57;28.60;99.90
23207;DHT22;11773;52.570;13.052;2023-06-26T14:11:27;28.70;99.90
23207;DHT22;11773;52.570;13.052;2023-06-26T14:13:57;28.80;99.90
23207;DHT22;11773;52.570;13.052;2023-06-26T14:16:27;28.30;99.90
23207;DHT22;11773;52.570;13.052;2023-06-26T14:18:57;27.50;99.90
23207;DHT22;11773;52.570;13.052;2023-06-26T14:21:27;27.30;99.90
23207;DHT22;11773;52.570;13.052;2023-06-26T14:23:57;27.30;99.90
23207;DHT22;11773;52.570;13.052;2023-06-26T14:26:26;27.60;99.90
23207;DHT22;11773;52.570;13.052;2023-06-26T14:28:57;27.70;99.90
23207;DHT22;11773;52.570;13.052;2023-06-26T14:31:30;27.50;99.90
23207;DHT22;11773;52.570;13.052;2023-06-26T14:33:59;27.00;99.90
23207;DHT22;11773;52.570;13.052;2023-06-26T14:36:31;27.10;99.90
23207;DHT22;11773;52.570;13.052;2023-06-26T14:39:00;26.90;99.90
23207;DHT22;11773;52.570;13.052;2023-06-26T14:41:30;27.00;99.90
23207;DHT22;11773;52.570;13.052;2023-06-26T14:44:00;26.90;99.90
23207;DHT22;11773;52.570;13.052;2023-06-26T14:46:30;26.60;99.90
23207;DHT22;11773;52.570;13.052;2023-06-26T14:49:01;26.40;99.90
23207;DHT22;11773;52.570;13.052;2023-06-26T14:51:31;26.30;99.90
23207;DHT22;11773;52.570;13.052;2023-06-26T14:54:01;26.00;99.90
23207;DHT22;11773;52.570;13.052;2023-06-26T14:56:31;25.60;99.90
23207;DHT22;11773;52.570;13.052;2023-06-26T14:59:00;26.10;99.90
23207;DHT22;11773;52.570;13.052;2023-06-26T15:01:30;26.00;99.90
23207;DHT22;11773;52.570;13.052;2023-06-26T15:03:59;25.50;99.90
23207;DHT22;11773;52.570;13.052;2023-06-26T15:06:29;25.50;99.90
23207;DHT22;11773;52.570;13.052;2023-06-26T15:09:00;25.60;99.90
23207;DHT22;11773;52.570;13.052;2023-06-26T15:11:30;25.40;99.90
23207;DHT22;11773;52.570;13.052;2023-06-26T15:14:00;25.30;99.90
23207;DHT22;11773;52.570;13.052;2023-06-26T15:16:29;25.70;99.90
23207;DHT22;11773;52.570;13.052;2023-06-26T15:18:59;25.80;99.90
23207;DHT22;11773;52.570;13.052;2023-06-26T15:21:28;25.90;99.90
23207;DHT22;11773;52.570;13.052;2023-06-26T15:23:58;25.90;99.90
23207;DHT22;11773;52.570;13.052;2023-06-26T15:26:27;25.40;99.90
23207;DHT22;11773;52.570;13.052;2023-06-26T15:28:57;25.30;99.90
23207;DHT22;11773;52.570;13.052;2023-06-26T15:31:29;25.20;99.90
23207;DHT22;11773;52.570;13.052;2023-06-26T15:33:59;25.10;99.90
23207;DHT22;11773;52.570;13.052;2023-06-26T15:36:28;24.70;99.90
23207;DHT22;11773;52.570;13.052;2023-06-26T15:38:58;25.10;99.90
23207;DHT22;11773;52.570;13.052;2023-06-26T15:41:28;25.30;99.90
23207;DHT22;11773;52.570;13.052;2023-06-26T15:43:57;25.20;99.90
23207;DHT22;11773;52.570;13.052;2023-06-26T15:46:27;25.40;99.90
23207;DHT22;11773;52.570;13.052;2023-06-26T15:48:57;25.60;99.90